createdAt,value
2023-03-03T00:02:43.465Z,53.00
2023-03-03T00:06:13.105Z,53.00
2023-03-03T00:09:36.935Z,53.00
2023-03-03T00:13:02.239Z,52.90
2023-03-03T00:16:30.646Z,52.90
2023-03-03T00:19:54.359Z,52.70
2023-03-03T00:23:29.993Z,52.90
2023-03-03T00:26:56.504Z,52.90
2023-03-03T00:30:26.689Z,52.90
2023-03-03T00:33:54.789Z,53.00
2023-03-03T00:37:30.612Z,53.00
2023-03-03T00:40:54.300Z,53.10
2023-03-03T00:44:42.639Z,53.00
2023-03-03T00:48:27.275Z,53.30
2023-03-03T00:51:51.285Z,53.40
2023-03-03T00:55:14.863Z,53.10
2023-03-03T00:58:38.896Z,53.20
2023-03-03T01:02:02.638Z,53.20
2023-03-03T01:05:28.819Z,53.30
2023-03-03T01:08:54.400Z,53.30
2023-03-03T01:12:19.599Z,53.40
2023-03-03T01:15:44.496Z,53.30
2023-03-03T01:19:10.957Z,53.30
2023-03-03T01:22:37.225Z,53.40
2023-03-03T01:26:01.027Z,53.40
2023-03-03T01:29:25.063Z,53.40
2023-03-03T01:32:48.592Z,53.40
2023-03-03T01:36:12.400Z,53.40
2023-03-03T01:39:37.283Z,53.40
2023-03-03T01:43:02.365Z,53.60
2023-03-03T01:46:49.914Z,53.50
2023-03-03T01:50:22.163Z,53.70
2023-03-03T01:53:52.694Z,53.70
2023-03-03T01:57:33.999Z,53.80
2023-03-03T02:01:05.145Z,53.80
2023-03-03T02:04:30.039Z,53.80
2023-03-03T02:07:54.347Z,54.30
2023-03-03T02:11:18.520Z,53.80
2023-03-03T02:14:43.486Z,53.80
2023-03-03T02:18:12.143Z,53.80
2023-03-03T02:21:36.193Z,53.90
2023-03-03T02:25:04.617Z,53.80
2023-03-03T02:28:32.732Z,53.90
2023-03-03T02:32:00.697Z,54.00
2023-03-03T02:35:32.634Z,53.90
2023-03-03T02:39:06.082Z,54.10
2023-03-03T02:42:32.986Z,54.10
2023-03-03T02:45:58.575Z,54.10
2023-03-03T02:49:25.086Z,54.20
2023-03-03T02:52:48.670Z,54.40
2023-03-03T02:56:12.498Z,54.60
2023-03-03T02:59:36.187Z,54.80
2023-03-03T03:03:07.666Z,55.00
2023-03-03T03:06:35.619Z,55.30
2023-03-03T03:09:59.827Z,55.30
2023-03-03T03:13:26.509Z,55.40
2023-03-03T03:16:51.137Z,55.50
2023-03-03T03:20:17.352Z,55.50
2023-03-03T03:23:42.753Z,55.80
2023-03-03T03:27:08.756Z,55.80
2023-03-03T03:30:32.787Z,55.70
2023-03-03T03:33:57.283Z,55.70
2023-03-03T03:37:23.123Z,55.70
2023-03-03T03:40:47.062Z,55.80
2023-03-03T03:44:10.725Z,55.80
2023-03-03T03:47:35.402Z,55.80
2023-03-03T03:50:59.096Z,55.90
2023-03-03T03:54:25.499Z,56.50
2023-03-03T03:57:49.886Z,55.80
2023-03-03T04:01:13.611Z,56.50
2023-03-03T04:04:42.928Z,55.90
2023-03-03T04:08:07.599Z,55.90
2023-03-03T04:11:32.935Z,55.80
2023-03-03T04:14:56.724Z,55.80
2023-03-03T04:18:20.486Z,55.80
2023-03-03T04:21:44.580Z,55.80
2023-03-03T04:25:09.958Z,55.80
2023-03-03T04:28:38.413Z,55.90
2023-03-03T04:32:02.361Z,55.80
2023-03-03T04:35:26.496Z,55.80
2023-03-03T04:38:50.459Z,55.90
2023-03-03T04:42:15.636Z,55.90
2023-03-03T04:45:40.845Z,56.00
2023-03-03T04:49:08.748Z,55.90
2023-03-03T04:52:33.754Z,56.00
2023-03-03T04:55:59.123Z,55.90
2023-03-03T04:59:23.129Z,56.00
2023-03-03T05:02:49.874Z,56.00
2023-03-03T05:06:13.684Z,56.00
2023-03-03T05:09:38.252Z,55.90
2023-03-03T05:13:01.775Z,56.00
2023-03-03T05:16:25.568Z,55.90
2023-03-03T05:19:50.614Z,55.80
2023-03-03T05:23:14.437Z,55.90
2023-03-03T05:26:38.483Z,56.00
2023-03-03T05:30:01.999Z,55.90
2023-03-03T05:33:26.165Z,55.90
2023-03-03T05:36:51.234Z,56.00
2023-03-03T05:40:15.798Z,56.00
2023-03-03T05:43:39.481Z,55.90
2023-03-03T05:47:03.094Z,55.80
2023-03-03T05:50:26.828Z,55.90
2023-03-03T05:53:51.733Z,55.80
2023-03-03T05:57:15.609Z,55.80
2023-03-03T06:00:39.384Z,56.00
2023-03-03T06:04:03.002Z,55.90
2023-03-03T06:07:26.643Z,56.10
2023-03-03T06:10:51.555Z,56.00
2023-03-03T06:14:15.228Z,56.00
2023-03-03T06:17:38.800Z,56.60
2023-03-03T06:21:02.445Z,56.10
2023-03-03T06:24:30.157Z,56.00
2023-03-03T06:27:55.316Z,55.90
2023-03-03T06:31:18.872Z,55.70
2023-03-03T06:34:42.494Z,55.60
2023-03-03T06:38:06.565Z,55.40
2023-03-03T06:41:32.572Z,55.30
2023-03-03T06:44:57.757Z,56.80
2023-03-03T06:48:21.283Z,55.30
2023-03-03T06:51:46.451Z,55.30
2023-03-03T06:55:22.517Z,55.40
2023-03-03T06:58:46.143Z,55.50
2023-03-03T07:02:18.355Z,55.40
2023-03-03T07:05:42.053Z,55.40
2023-03-03T07:09:13.500Z,55.40
2023-03-03T07:12:37.187Z,55.40
2023-03-03T07:16:12.683Z,55.40
2023-03-03T07:19:37.978Z,55.80
2023-03-03T07:23:02.386Z,55.40
2023-03-03T07:26:32.792Z,55.40
2023-03-03T07:30:18.664Z,55.50
2023-03-03T07:33:47.708Z,55.50
2023-03-03T07:37:20.141Z,54.80
2023-03-03T07:40:50.554Z,55.60
2023-03-03T07:44:23.480Z,55.50
2023-03-03T07:47:47.050Z,55.40
2023-03-03T07:51:22.756Z,55.50
2023-03-03T07:54:48.789Z,55.70
2023-03-03T07:58:36.958Z,55.70
2023-03-03T08:02:00.580Z,55.80
2023-03-03T08:05:31.933Z,55.80
2023-03-03T08:08:55.600Z,55.90
2023-03-03T08:12:41.811Z,56.10
2023-03-03T08:16:31.290Z,56.50
2023-03-03T08:19:57.368Z,56.70
2023-03-03T08:23:22.650Z,57.00
2023-03-03T08:26:46.646Z,57.20
2023-03-03T08:30:13.492Z,57.00
2023-03-03T08:33:37.142Z,56.60
2023-03-03T08:37:00.643Z,56.70
2023-03-03T08:40:24.257Z,59.00
2023-03-03T08:43:47.830Z,61.20
2023-03-03T08:47:12.788Z,63.10
2023-03-03T08:50:36.646Z,63.60
2023-03-03T08:54:01.055Z,64.20
2023-03-03T08:57:25.083Z,63.00
2023-03-03T09:00:51.128Z,59.70
2023-03-03T09:04:17.536Z,57.90
2023-03-03T09:07:42.515Z,57.00
2023-03-03T09:11:14.020Z,56.70
2023-03-03T09:14:37.836Z,55.40
2023-03-03T09:18:15.226Z,55.20
2023-03-03T09:21:42.498Z,55.60
2023-03-03T09:25:24.007Z,56.00
2023-03-03T09:28:48.056Z,56.20
2023-03-03T09:32:32.533Z,58.20
2023-03-03T09:36:06.952Z,56.90
2023-03-03T09:39:37.807Z,58.00
2023-03-03T09:43:10.667Z,56.60
2023-03-03T09:46:53.662Z,55.90
2023-03-03T09:50:35.652Z,54.50
2023-03-03T09:54:27.827Z,53.10
2023-03-03T09:58:30.246Z,52.50
2023-03-03T10:02:20.431Z,52.80
2023-03-03T10:05:58.920Z,51.70
2023-03-03T10:09:53.003Z,51.90
2023-03-03T10:13:32.670Z,51.40
2023-03-03T10:17:17.244Z,51.90
2023-03-03T10:20:56.015Z,51.90
2023-03-03T10:24:29.982Z,51.80
2023-03-03T10:28:20.683Z,52.00
2023-03-03T10:32:25.918Z,52.10
2023-03-03T10:36:31.001Z,51.60
2023-03-03T10:40:12.818Z,51.80
2023-03-03T10:44:17.493Z,52.60
2023-03-03T10:48:01.189Z,52.10
2023-03-03T10:51:38.134Z,52.00
2023-03-03T10:55:23.308Z,52.90
2023-03-03T10:59:18.055Z,53.50
2023-03-03T11:03:08.288Z,52.60
2023-03-03T11:06:46.787Z,52.70
2023-03-03T11:10:30.748Z,52.30
2023-03-03T11:14:04.410Z,50.80
2023-03-03T11:17:55.716Z,51.00
2023-03-03T11:21:27.525Z,50.90
2023-03-03T11:25:08.181Z,50.60
2023-03-03T11:28:53.214Z,50.10
2023-03-03T11:32:34.225Z,49.50
2023-03-03T11:36:16.969Z,49.00
2023-03-03T11:39:44.257Z,48.50
2023-03-03T11:43:34.133Z,48.50
2023-03-03T11:47:06.807Z,48.00
2023-03-03T11:50:39.996Z,48.20
2023-03-03T11:54:16.644Z,48.00
2023-03-03T11:57:46.067Z,48.00
2023-03-03T12:01:21.843Z,48.20
2023-03-03T12:04:53.115Z,48.10
2023-03-03T12:08:43.444Z,48.30
2023-03-03T12:12:17.473Z,49.30
2023-03-03T12:15:53.746Z,50.70
2023-03-03T12:19:34.440Z,50.90
2023-03-03T12:23:15.275Z,51.20
2023-03-03T12:26:55.552Z,51.20
2023-03-03T12:31:09.951Z,50.80
2023-03-03T12:34:43.049Z,50.60
2023-03-03T12:38:25.037Z,50.20
2023-03-03T12:41:59.605Z,49.30
2023-03-03T12:45:39.813Z,48.30
2023-03-03T12:49:04.043Z,48.10
2023-03-03T12:52:39.265Z,48.00
2023-03-03T12:56:08.887Z,47.60
2023-03-03T12:59:50.228Z,47.40
2023-03-03T13:03:46.248Z,46.90
2023-03-03T13:07:28.598Z,46.50
2023-03-03T13:11:05.191Z,46.20
2023-03-03T13:14:40.045Z,46.30
2023-03-03T13:18:26.901Z,46.50
2023-03-03T13:22:01.354Z,46.40
2023-03-03T13:25:49.722Z,47.00
2023-03-03T13:29:24.297Z,46.20
2023-03-03T13:32:58.837Z,46.30
2023-03-03T13:36:27.158Z,46.10
2023-03-03T13:40:02.128Z,46.60
2023-03-03T13:43:32.019Z,46.20
2023-03-03T13:47:14.340Z,46.10
2023-03-03T13:50:45.886Z,46.10
2023-03-03T13:54:36.295Z,46.10
2023-03-03T13:58:20.672Z,46.00
2023-03-03T14:01:58.957Z,45.90
2023-03-03T14:05:34.887Z,46.10
2023-03-03T14:09:21.071Z,46.20
2023-03-03T14:12:59.095Z,46.10
2023-03-03T14:16:44.959Z,46.00
2023-03-03T14:20:23.343Z,45.80
2023-03-03T14:23:59.134Z,45.90
2023-03-03T14:27:28.208Z,45.10
2023-03-03T14:30:57.183Z,45.20
2023-03-03T14:34:39.517Z,45.60
2023-03-03T14:38:10.284Z,45.50
2023-03-03T14:41:42.700Z,45.90
2023-03-03T14:45:30.770Z,45.70
2023-03-03T14:48:58.248Z,45.70
2023-03-03T14:52:26.333Z,45.90
2023-03-03T14:55:52.893Z,45.80
2023-03-03T14:59:23.609Z,45.80
2023-03-03T15:03:06.644Z,45.80
2023-03-03T15:06:45.908Z,45.90
2023-03-03T15:10:11.928Z,45.70
2023-03-03T15:13:36.874Z,45.80
2023-03-03T15:17:30.525Z,45.70
2023-03-03T15:21:04.780Z,45.50
2023-03-03T15:24:40.190Z,45.60
2023-03-03T15:28:23.591Z,45.60
2023-03-03T15:31:59.081Z,45.50
2023-03-03T15:35:37.675Z,45.60
2023-03-03T15:39:18.209Z,45.70
2023-03-03T15:42:51.301Z,45.80
2023-03-03T15:46:33.501Z,45.90
2023-03-03T15:50:18.498Z,45.90
2023-03-03T15:54:32.957Z,45.90
2023-03-03T15:58:18.696Z,45.80
2023-03-03T16:01:46.812Z,45.60
2023-03-03T16:05:21.739Z,45.70
2023-03-03T16:09:00.033Z,45.80
2023-03-03T16:12:38.613Z,45.70
2023-03-03T16:16:21.413Z,45.90
2023-03-03T16:20:02.020Z,45.90
2023-03-03T16:23:37.585Z,45.90
2023-03-03T16:27:15.739Z,46.50
2023-03-03T16:30:57.159Z,45.90
2023-03-03T16:34:27.417Z,46.00
2023-03-03T16:38:00.792Z,46.50
2023-03-03T16:41:40.841Z,45.90
2023-03-03T16:45:22.826Z,45.90
2023-03-03T16:48:55.930Z,45.90
2023-03-03T16:52:30.869Z,45.90
2023-03-03T16:56:07.847Z,46.00
2023-03-03T16:59:51.186Z,45.90
2023-03-03T17:03:49.003Z,45.90
2023-03-03T17:07:43.293Z,46.00
2023-03-03T17:11:16.586Z,46.00
2023-03-03T17:14:56.954Z,46.00
2023-03-03T17:18:38.756Z,46.00
2023-03-03T17:22:19.233Z,46.10
2023-03-03T17:25:54.971Z,46.10
2023-03-03T17:29:43.659Z,46.10
2023-03-03T17:33:50.170Z,46.20
2023-03-03T17:37:31.942Z,46.20
2023-03-03T17:41:08.695Z,46.20
2023-03-03T17:44:42.375Z,46.20
2023-03-03T17:48:36.870Z,46.30
2023-03-03T17:52:55.845Z,46.40
2023-03-03T17:56:24.350Z,46.60
2023-03-03T18:00:13.202Z,46.50
2023-03-03T18:04:10.814Z,46.70
2023-03-03T18:07:58.424Z,46.70
2023-03-03T18:11:41.847Z,47.40
2023-03-03T18:15:28.891Z,47.60
2023-03-03T18:19:31.574Z,47.80
2023-03-03T18:22:57.822Z,47.10
2023-03-03T18:26:37.497Z,47.70
2023-03-03T18:30:54.703Z,47.90
2023-03-03T18:34:35.677Z,48.00
2023-03-03T18:38:31.000Z,48.50
2023-03-03T18:42:38.171Z,48.00
2023-03-03T18:46:02.130Z,48.00
2023-03-03T18:50:16.991Z,47.90
2023-03-03T18:54:02.716Z,48.20
2023-03-03T18:57:28.397Z,48.30
2023-03-03T19:01:00.964Z,48.20
2023-03-03T19:04:26.325Z,48.40
2023-03-03T19:07:59.454Z,49.10
2023-03-03T19:11:44.614Z,48.80
2023-03-03T19:15:47.508Z,48.90
2023-03-03T19:19:17.847Z,48.80
2023-03-03T19:22:48.373Z,48.80
2023-03-03T19:26:55.469Z,48.80
2023-03-03T19:30:41.144Z,49.00
2023-03-03T19:34:15.508Z,49.00
2023-03-03T19:37:54.867Z,49.00
2023-03-03T19:41:45.511Z,49.10
2023-03-03T19:45:29.773Z,49.10
2023-03-03T19:49:08.549Z,49.00
2023-03-03T19:52:40.980Z,49.00
2023-03-03T19:56:26.525Z,49.20
2023-03-03T20:00:00.259Z,49.30
2023-03-03T20:04:08.702Z,49.30
2023-03-03T20:07:41.779Z,49.50
2023-03-03T20:11:16.847Z,49.40
2023-03-03T20:14:49.749Z,49.50
2023-03-03T20:18:58.672Z,49.50
2023-03-03T20:22:37.612Z,49.50
2023-03-03T20:26:13.404Z,49.40
2023-03-03T20:30:03.848Z,49.50
2023-03-03T20:33:46.115Z,49.70
2023-03-03T20:37:19.797Z,49.80
2023-03-03T20:40:54.563Z,49.70
2023-03-03T20:44:36.030Z,49.90
2023-03-03T20:48:16.836Z,50.00
2023-03-03T20:51:48.338Z,50.20
2023-03-03T20:55:23.355Z,49.90
2023-03-03T20:59:05.907Z,49.90
2023-03-03T21:02:41.195Z,49.90
2023-03-03T21:06:09.107Z,49.90
2023-03-03T21:09:39.006Z,49.90
2023-03-03T21:13:37.111Z,49.90
2023-03-03T21:17:27.093Z,49.90
2023-03-03T21:20:51.825Z,50.00
2023-03-03T21:24:19.787Z,49.80
2023-03-03T21:27:43.493Z,49.80
2023-03-03T21:31:16.867Z,49.60
2023-03-03T21:34:42.948Z,50.00
2023-03-03T21:38:06.533Z,50.00
2023-03-03T21:41:55.368Z,49.80
2023-03-03T21:45:21.216Z,50.20
2023-03-03T21:48:46.139Z,50.00
2023-03-03T21:52:11.219Z,50.00
2023-03-03T21:55:34.766Z,50.20
2023-03-03T21:58:58.310Z,50.00
2023-03-03T22:02:22.035Z,50.00
2023-03-03T22:05:47.662Z,50.10
2023-03-03T22:09:11.588Z,50.40
2023-03-03T22:12:35.311Z,50.30
2023-03-03T22:15:58.931Z,50.40
2023-03-03T22:19:24.129Z,50.30
2023-03-03T22:22:49.126Z,50.40
2023-03-03T22:26:12.722Z,50.30
2023-03-03T22:29:36.291Z,50.30
2023-03-03T22:32:59.814Z,50.10
2023-03-03T22:36:23.566Z,50.10
2023-03-03T22:39:48.598Z,50.20
2023-03-03T22:43:14.457Z,50.20
2023-03-03T22:46:38.150Z,49.80
2023-03-03T22:50:01.820Z,50.20
2023-03-03T22:53:27.290Z,50.30
2023-03-03T22:56:52.605Z,50.20
2023-03-03T23:00:17.452Z,50.80
2023-03-03T23:03:41.173Z,50.30
2023-03-03T23:07:05.330Z,50.20
2023-03-03T23:10:28.891Z,50.20
2023-03-03T23:13:53.827Z,50.50
2023-03-03T23:17:17.329Z,50.20
2023-03-03T23:20:45.717Z,50.20
2023-03-03T23:24:11.030Z,50.50
2023-03-03T23:27:34.938Z,50.20
2023-03-03T23:31:00.056Z,50.30
2023-03-03T23:34:24.424Z,50.50
2023-03-03T23:37:48.039Z,50.40
2023-03-03T23:41:12.885Z,50.40
2023-03-03T23:44:37.581Z,50.60
2023-03-03T23:48:02.492Z,50.50
2023-03-03T23:51:26.586Z,50.60
2023-03-03T23:54:50.385Z,50.80
2023-03-03T23:58:14.029Z,50.80
